sensor_id;sensor_type;location;lat;lon;timestamp;temperature;humidity
42867;DHT22;39461;40.948;73.006;2022-07-25T00:01:21;28.20;60.10
42867;DHT22;39461;40.948;73.006;2022-07-25T00:03:54;28.10;60.10
42867;DHT22;39461;40.948;73.006;2022-07-25T00:06:27;28.20;60.20
42867;DHT22;39461;40.948;73.006;2022-07-25T00:09:00;28.10;60.00
42867;DHT22;39461;40.948;73.006;2022-07-25T00:11:26;28.10;59.90
42867;DHT22;39461;40.948;73.006;2022-07-25T00:14:00;28.10;60.20
42867;DHT22;39461;40.948;73.006;2022-07-25T00:16:33;28.00;60.00
42867;DHT22;39461;40.948;73.006;2022-07-25T00:19:06;28.00;60.30
42867;DHT22;39461;40.948;73.006;2022-07-25T00:21:38;28.00;60.30
42867;DHT22;39461;40.948;73.006;2022-07-25T00:24:12;28.00;60.40
42867;DHT22;39461;40.948;73.006;2022-07-25T00:26:45;28.00;60.20
42867;DHT22;39461;40.948;73.006;2022-07-25T00:29:20;28.00;60.20
42867;DHT22;39461;40.948;73.006;2022-07-25T00:31:46;28.00;60.00
42867;DHT22;39461;40.948;73.006;2022-07-25T00:34:13;28.00;60.10
42867;DHT22;39461;40.948;73.006;2022-07-25T00:36:46;28.00;60.40
42867;DHT22;39461;40.948;73.006;2022-07-25T00:39:21;27.90;60.10
42867;DHT22;39461;40.948;73.006;2022-07-25T00:41:54;28.00;60.20
42867;DHT22;39461;40.948;73.006;2022-07-25T00:44:31;28.00;60.40
42867;DHT22;39461;40.948;73.006;2022-07-25T00:47:10;27.90;60.50
42867;DHT22;39461;40.948;73.006;2022-07-25T00:49:43;27.90;61.10
42867;DHT22;39461;40.948;73.006;2022-07-25T00:52:16;27.90;60.80
42867;DHT22;39461;40.948;73.006;2022-07-25T00:54:57;28.00;60.80
42867;DHT22;39461;40.948;73.006;2022-07-25T00:57:29;28.00;60.60
42867;DHT22;39461;40.948;73.006;2022-07-25T01:00:06;28.00;60.50
42867;DHT22;39461;40.948;73.006;2022-07-25T01:02:40;28.10;61.10
42867;DHT22;39461;40.948;73.006;2022-07-25T01:05:13;28.10;60.60
42867;DHT22;39461;40.948;73.006;2022-07-25T01:07:46;28.10;60.40
42867;DHT22;39461;40.948;73.006;2022-07-25T01:10:21;28.20;60.40
42867;DHT22;39461;40.948;73.006;2022-07-25T01:12:54;28.30;60.50
42867;DHT22;39461;40.948;73.006;2022-07-25T01:15:27;28.40;60.90
42867;DHT22;39461;40.948;73.006;2022-07-25T01:17:54;28.40;61.00
42867;DHT22;39461;40.948;73.006;2022-07-25T01:20:28;28.40;63.00
42867;DHT22;39461;40.948;73.006;2022-07-25T01:23:02;28.40;63.20
42867;DHT22;39461;40.948;73.006;2022-07-25T01:25:35;28.50;64.50
42867;DHT22;39461;40.948;73.006;2022-07-25T01:28:08;28.50;63.40
42867;DHT22;39461;40.948;73.006;2022-07-25T01:30:41;28.60;63.90
42867;DHT22;39461;40.948;73.006;2022-07-25T01:33:18;28.60;64.40
42867;DHT22;39461;40.948;73.006;2022-07-25T01:35:51;28.50;64.30
42867;DHT22;39461;40.948;73.006;2022-07-25T01:38:24;28.60;64.20
42867;DHT22;39461;40.948;73.006;2022-07-25T01:40:57;28.60;63.30
42867;DHT22;39461;40.948;73.006;2022-07-25T01:43:35;28.60;64.40
42867;DHT22;39461;40.948;73.006;2022-07-25T01:46:04;28.60;63.60
42867;DHT22;39461;40.948;73.006;2022-07-25T01:48:33;28.70;63.70
42867;DHT22;39461;40.948;73.006;2022-07-25T01:51:04;28.70;64.70
42867;DHT22;39461;40.948;73.006;2022-07-25T01:53:37;28.70;64.30
42867;DHT22;39461;40.948;73.006;2022-07-25T01:56:10;28.70;63.70
42867;DHT22;39461;40.948;73.006;2022-07-25T01:58:43;28.70;64.10
42867;DHT22;39461;40.948;73.006;2022-07-25T02:01:18;28.70;64.20
42867;DHT22;39461;40.948;73.006;2022-07-25T02:03:53;28.80;64.50
42867;DHT22;39461;40.948;73.006;2022-07-25T02:06:26;28.80;64.70
42867;DHT22;39461;40.948;73.006;2022-07-25T02:08:59;28.90;65.10
42867;DHT22;39461;40.948;73.006;2022-07-25T02:11:25;29.00;64.70
42867;DHT22;39461;40.948;73.006;2022-07-25T02:13:52;29.00;64.50
42867;DHT22;39461;40.948;73.006;2022-07-25T02:16:25;29.10;64.50
42867;DHT22;39461;40.948;73.006;2022-07-25T02:18:51;29.10;64.60
42867;DHT22;39461;40.948;73.006;2022-07-25T02:21:24;29.10;65.00
42867;DHT22;39461;40.948;73.006;2022-07-25T02:23:57;29.20;64.70
42867;DHT22;39461;40.948;73.006;2022-07-25T02:26:30;29.30;64.90
42867;DHT22;39461;40.948;73.006;2022-07-25T02:29:03;29.30;64.30
42867;DHT22;39461;40.948;73.006;2022-07-25T02:31:41;29.40;64.60
42867;DHT22;39461;40.948;73.006;2022-07-25T02:34:12;29.50;64.40
42867;DHT22;39461;40.948;73.006;2022-07-25T02:36:45;29.70;64.30
42867;DHT22;39461;40.948;73.006;2022-07-25T02:39:20;29.80;64.30
42867;DHT22;39461;40.948;73.006;2022-07-25T02:41:54;29.80;64.20
42867;DHT22;39461;40.948;73.006;2022-07-25T02:44:31;30.00;63.50
42867;DHT22;39461;40.948;73.006;2022-07-25T02:47:06;30.30;63.70
42867;DHT22;39461;40.948;73.006;2022-07-25T02:49:38;30.50;64.00
42867;DHT22;39461;40.948;73.006;2022-07-25T02:52:15;30.80;63.40
42867;DHT22;39461;40.948;73.006;2022-07-25T02:54:50;31.00;63.20
42867;DHT22;39461;40.948;73.006;2022-07-25T02:57:25;31.30;63.00
42867;DHT22;39461;40.948;73.006;2022-07-25T03:00:00;31.50;63.20
42867;DHT22;39461;40.948;73.006;2022-07-25T03:02:33;31.70;62.00
42867;DHT22;39461;40.948;73.006;2022-07-25T03:05:09;31.80;61.40
42867;DHT22;39461;40.948;73.006;2022-07-25T03:07:44;32.00;61.40
42867;DHT22;39461;40.948;73.006;2022-07-25T03:10:20;32.20;60.80
42867;DHT22;39461;40.948;73.006;2022-07-25T03:12:54;32.40;60.90
42867;DHT22;39461;40.948;73.006;2022-07-25T03:15:27;32.50;61.40
42867;DHT22;39461;40.948;73.006;2022-07-25T03:18:00;32.70;62.20
42867;DHT22;39461;40.948;73.006;2022-07-25T03:20:35;32.90;60.70
42867;DHT22;39461;40.948;73.006;2022-07-25T03:23:03;32.90;59.10
42867;DHT22;39461;40.948;73.006;2022-07-25T03:25:38;33.10;60.50
42867;DHT22;39461;40.948;73.006;2022-07-25T03:28:13;33.20;60.00
42867;DHT22;39461;40.948;73.006;2022-07-25T03:30:46;33.40;59.90
42867;DHT22;39461;40.948;73.006;2022-07-25T03:33:21;33.50;58.00
42867;DHT22;39461;40.948;73.006;2022-07-25T03:35:56;33.70;58.90
42867;DHT22;39461;40.948;73.006;2022-07-25T03:38:24;33.80;58.30
42867;DHT22;39461;40.948;73.006;2022-07-25T03:40:59;33.90;58.20
42867;DHT22;39461;40.948;73.006;2022-07-25T03:43:34;34.00;56.40
42867;DHT22;39461;40.948;73.006;2022-07-25T03:46:08;34.10;55.60
42867;DHT22;39461;40.948;73.006;2022-07-25T03:48:35;34.30;53.60
42867;DHT22;39461;40.948;73.006;2022-07-25T03:51:07;34.40;54.20
42867;DHT22;39461;40.948;73.006;2022-07-25T03:53:40;34.50;54.20
42867;DHT22;39461;40.948;73.006;2022-07-25T03:56:38;34.50;50.50
42867;DHT22;39461;40.948;73.006;2022-07-25T03:59:12;34.60;49.80
42867;DHT22;39461;40.948;73.006;2022-07-25T04:01:48;34.70;49.00
42867;DHT22;39461;40.948;73.006;2022-07-25T04:04:21;34.70;48.80
42867;DHT22;39461;40.948;73.006;2022-07-25T04:06:56;34.80;49.40
42867;DHT22;39461;40.948;73.006;2022-07-25T04:09:31;34.90;48.70
42867;DHT22;39461;40.948;73.006;2022-07-25T04:12:06;35.00;49.20
42867;DHT22;39461;40.948;73.006;2022-07-25T04:14:40;35.10;49.30
42867;DHT22;39461;40.948;73.006;2022-07-25T04:17:14;35.00;48.40
42867;DHT22;39461;40.948;73.006;2022-07-25T04:19:49;35.10;48.30
42867;DHT22;39461;40.948;73.006;2022-07-25T04:22:23;35.20;49.00
42867;DHT22;39461;40.948;73.006;2022-07-25T04:24:58;35.20;48.40
42867;DHT22;39461;40.948;73.006;2022-07-25T04:27:33;35.20;48.50
42867;DHT22;39461;40.948;73.006;2022-07-25T04:30:08;35.30;48.00
42867;DHT22;39461;40.948;73.006;2022-07-25T04:32:47;35.30;48.20
42867;DHT22;39461;40.948;73.006;2022-07-25T04:35:14;35.40;48.60
42867;DHT22;39461;40.948;73.006;2022-07-25T04:37:47;35.50;48.20
42867;DHT22;39461;40.948;73.006;2022-07-25T04:40:22;35.50;48.20
42867;DHT22;39461;40.948;73.006;2022-07-25T04:42:56;35.60;49.10
42867;DHT22;39461;40.948;73.006;2022-07-25T04:45:31;35.70;48.60
42867;DHT22;39461;40.948;73.006;2022-07-25T04:48:02;35.80;48.40
42867;DHT22;39461;40.948;73.006;2022-07-25T04:50:35;35.80;49.00
42867;DHT22;39461;40.948;73.006;2022-07-25T04:53:10;35.90;49.00
42867;DHT22;39461;40.948;73.006;2022-07-25T04:55:43;36.00;48.90
42867;DHT22;39461;40.948;73.006;2022-07-25T04:58:18;36.00;48.30
42867;DHT22;39461;40.948;73.006;2022-07-25T05:00:52;35.90;48.20
42867;DHT22;39461;40.948;73.006;2022-07-25T05:03:25;35.90;47.90
42867;DHT22;39461;40.948;73.006;2022-07-25T05:05:59;35.90;48.10
42867;DHT22;39461;40.948;73.006;2022-07-25T05:08:33;35.90;47.10
42867;DHT22;39461;40.948;73.006;2022-07-25T05:11:07;35.90;47.10
42867;DHT22;39461;40.948;73.006;2022-07-25T05:13:43;36.00;47.30
42867;DHT22;39461;40.948;73.006;2022-07-25T05:16:18;36.10;47.50
42867;DHT22;39461;40.948;73.006;2022-07-25T05:18:48;36.10;47.20
42867;DHT22;39461;40.948;73.006;2022-07-25T05:21:46;36.10;47.10
42867;DHT22;39461;40.948;73.006;2022-07-25T05:24:25;36.10;46.70
42867;DHT22;39461;40.948;73.006;2022-07-25T05:26:58;36.20;47.60
42867;DHT22;39461;40.948;73.006;2022-07-25T05:29:31;36.20;47.30
42867;DHT22;39461;40.948;73.006;2022-07-25T05:32:04;36.20;48.00
42867;DHT22;39461;40.948;73.006;2022-07-25T05:34:39;36.30;49.70
42867;DHT22;39461;40.948;73.006;2022-07-25T05:37:12;36.20;47.40
42867;DHT22;39461;40.948;73.006;2022-07-25T05:39:51;36.00;46.90
42867;DHT22;39461;40.948;73.006;2022-07-25T05:42:24;36.20;47.00
42867;DHT22;39461;40.948;73.006;2022-07-25T05:44:56;36.30;47.40
42867;DHT22;39461;40.948;73.006;2022-07-25T05:47:29;36.40;46.50
42867;DHT22;39461;40.948;73.006;2022-07-25T05:49:55;36.30;46.80
42867;DHT22;39461;40.948;73.006;2022-07-25T05:52:22;36.40;47.60
42867;DHT22;39461;40.948;73.006;2022-07-25T05:54:50;36.50;46.40
42867;DHT22;39461;40.948;73.006;2022-07-25T05:57:25;36.50;45.60
42867;DHT22;39461;40.948;73.006;2022-07-25T05:59:59;36.40;45.70
42867;DHT22;39461;40.948;73.006;2022-07-25T06:02:33;36.50;45.20
42867;DHT22;39461;40.948;73.006;2022-07-25T06:05:13;36.50;45.80
42867;DHT22;39461;40.948;73.006;2022-07-25T06:07:50;36.50;45.30
42867;DHT22;39461;40.948;73.006;2022-07-25T06:10:48;36.50;45.50
42867;DHT22;39461;40.948;73.006;2022-07-25T06:13:21;36.50;45.30
42867;DHT22;39461;40.948;73.006;2022-07-25T06:15:57;36.60;45.60
42867;DHT22;39461;40.948;73.006;2022-07-25T06:18:30;36.70;44.50
42867;DHT22;39461;40.948;73.006;2022-07-25T06:21:03;36.80;45.00
42867;DHT22;39461;40.948;73.006;2022-07-25T06:23:38;36.90;45.50
42867;DHT22;39461;40.948;73.006;2022-07-25T06:26:11;37.00;46.00
42867;DHT22;39461;40.948;73.006;2022-07-25T06:28:46;36.90;45.10
42867;DHT22;39461;40.948;73.006;2022-07-25T06:31:19;36.90;45.50
42867;DHT22;39461;40.948;73.006;2022-07-25T06:33:52;37.00;45.50
42867;DHT22;39461;40.948;73.006;2022-07-25T06:36:25;36.90;43.30
42867;DHT22;39461;40.948;73.006;2022-07-25T06:38:58;36.90;44.80
42867;DHT22;39461;40.948;73.006;2022-07-25T06:41:32;37.10;46.10
42867;DHT22;39461;40.948;73.006;2022-07-25T06:44:06;37.20;43.50
42867;DHT22;39461;40.948;73.006;2022-07-25T06:46:39;37.20;44.50
42867;DHT22;39461;40.948;73.006;2022-07-25T06:49:12;37.20;44.10
42867;DHT22;39461;40.948;73.006;2022-07-25T06:51:45;37.20;42.00
42867;DHT22;39461;40.948;73.006;2022-07-25T06:54:22;37.20;43.90
42867;DHT22;39461;40.948;73.006;2022-07-25T06:56:55;37.20;44.50
42867;DHT22;39461;40.948;73.006;2022-07-25T06:59:30;37.30;44.30
42867;DHT22;39461;40.948;73.006;2022-07-25T07:02:04;37.30;44.80
42867;DHT22;39461;40.948;73.006;2022-07-25T07:04:38;37.30;44.60
42867;DHT22;39461;40.948;73.006;2022-07-25T07:07:04;37.40;43.10
42867;DHT22;39461;40.948;73.006;2022-07-25T07:09:31;37.30;43.60
42867;DHT22;39461;40.948;73.006;2022-07-25T07:12:06;37.40;44.70
42867;DHT22;39461;40.948;73.006;2022-07-25T07:14:41;37.30;44.80
42867;DHT22;39461;40.948;73.006;2022-07-25T07:17:18;37.50;42.10
42867;DHT22;39461;40.948;73.006;2022-07-25T07:19:53;37.50;41.90
42867;DHT22;39461;40.948;73.006;2022-07-25T07:22:20;37.40;43.50
42867;DHT22;39461;40.948;73.006;2022-07-25T07:24:53;37.50;42.80
42867;DHT22;39461;40.948;73.006;2022-07-25T07:27:26;37.60;43.90
42867;DHT22;39461;40.948;73.006;2022-07-25T07:30:00;37.50;46.00
42867;DHT22;39461;40.948;73.006;2022-07-25T07:32:34;37.60;46.60
42867;DHT22;39461;40.948;73.006;2022-07-25T07:35:07;37.60;46.10
42867;DHT22;39461;40.948;73.006;2022-07-25T07:37:44;37.60;44.60
42867;DHT22;39461;40.948;73.006;2022-07-25T07:40:43;37.50;44.40
42867;DHT22;39461;40.948;73.006;2022-07-25T07:43:10;37.60;44.00
42867;DHT22;39461;40.948;73.006;2022-07-25T07:45:38;37.50;45.20
42867;DHT22;39461;40.948;73.006;2022-07-25T07:48:10;37.60;42.80
42867;DHT22;39461;40.948;73.006;2022-07-25T07:50:39;37.70;41.30
42867;DHT22;39461;40.948;73.006;2022-07-25T07:53:12;37.80;43.50
42867;DHT22;39461;40.948;73.006;2022-07-25T07:55:41;37.70;43.20
42867;DHT22;39461;40.948;73.006;2022-07-25T07:58:19;37.80;42.40
42867;DHT22;39461;40.948;73.006;2022-07-25T08:00:52;37.70;41.80
42867;DHT22;39461;40.948;73.006;2022-07-25T08:03:27;37.80;41.20
42867;DHT22;39461;40.948;73.006;2022-07-25T08:06:00;37.70;39.50
42867;DHT22;39461;40.948;73.006;2022-07-25T08:08:35;37.80;39.70
42867;DHT22;39461;40.948;73.006;2022-07-25T08:11:06;37.90;38.50
42867;DHT22;39461;40.948;73.006;2022-07-25T08:13:41;37.80;40.40
42867;DHT22;39461;40.948;73.006;2022-07-25T08:16:18;37.90;38.90
42867;DHT22;39461;40.948;73.006;2022-07-25T08:18:51;38.00;39.40
42867;DHT22;39461;40.948;73.006;2022-07-25T08:21:26;38.10;39.40
42867;DHT22;39461;40.948;73.006;2022-07-25T08:23:54;38.10;39.40
42867;DHT22;39461;40.948;73.006;2022-07-25T08:26:20;38.10;39.10
42867;DHT22;39461;40.948;73.006;2022-07-25T08:28:47;38.10;39.60
42867;DHT22;39461;40.948;73.006;2022-07-25T08:31:22;38.20;39.50
42867;DHT22;39461;40.948;73.006;2022-07-25T08:33:49;38.10;39.30
42867;DHT22;39461;40.948;73.006;2022-07-25T08:36:22;38.20;41.50
42867;DHT22;39461;40.948;73.006;2022-07-25T08:38:57;38.30;40.30
42867;DHT22;39461;40.948;73.006;2022-07-25T08:41:32;38.30;40.20
42867;DHT22;39461;40.948;73.006;2022-07-25T08:44:08;38.20;40.10
42867;DHT22;39461;40.948;73.006;2022-07-25T08:46:44;38.20;39.90
42867;DHT22;39461;40.948;73.006;2022-07-25T08:49:17;38.30;39.20
42867;DHT22;39461;40.948;73.006;2022-07-25T08:51:50;38.30;39.60
42867;DHT22;39461;40.948;73.006;2022-07-25T08:54:23;38.30;40.00
42867;DHT22;39461;40.948;73.006;2022-07-25T08:56:58;38.30;40.30
42867;DHT22;39461;40.948;73.006;2022-07-25T08:59:33;38.50;40.00
42867;DHT22;39461;40.948;73.006;2022-07-25T09:02:12;38.60;39.90
42867;DHT22;39461;40.948;73.006;2022-07-25T09:05:11;38.60;39.50
42867;DHT22;39461;40.948;73.006;2022-07-25T09:07:44;38.70;41.20
42867;DHT22;39461;40.948;73.006;2022-07-25T09:10:25;38.80;38.80
42867;DHT22;39461;40.948;73.006;2022-07-25T09:13:05;38.70;39.30
42867;DHT22;39461;40.948;73.006;2022-07-25T09:16:04;38.80;42.50
42867;DHT22;39461;40.948;73.006;2022-07-25T09:19:05;38.80;40.60
42867;DHT22;39461;40.948;73.006;2022-07-25T09:21:41;38.90;41.30
42867;DHT22;39461;40.948;73.006;2022-07-25T09:24:15;38.90;40.10
42867;DHT22;39461;40.948;73.006;2022-07-25T09:29:29;39.00;40.10
42867;DHT22;39461;40.948;73.006;2022-07-25T09:32:16;39.10;40.90
42867;DHT22;39461;40.948;73.006;2022-07-25T09:34:53;39.10;40.70
42867;DHT22;39461;40.948;73.006;2022-07-25T09:37:28;39.20;41.50
42867;DHT22;39461;40.948;73.006;2022-07-25T09:40:12;39.20;41.90
42867;DHT22;39461;40.948;73.006;2022-07-25T09:42:49;39.10;42.10
42867;DHT22;39461;40.948;73.006;2022-07-25T09:45:25;39.10;42.70
42867;DHT22;39461;40.948;73.006;2022-07-25T09:48:01;39.10;43.20
42867;DHT22;39461;40.948;73.006;2022-07-25T09:50:30;39.20;43.20
42867;DHT22;39461;40.948;73.006;2022-07-25T09:53:03;39.20;41.60
42867;DHT22;39461;40.948;73.006;2022-07-25T09:55:32;39.10;42.60
42867;DHT22;39461;40.948;73.006;2022-07-25T09:58:08;39.20;43.00
42867;DHT22;39461;40.948;73.006;2022-07-25T10:00:41;39.10;42.70
42867;DHT22;39461;40.948;73.006;2022-07-25T10:06:05;39.00;43.40
42867;DHT22;39461;40.948;73.006;2022-07-25T10:08:36;39.00;43.50
42867;DHT22;39461;40.948;73.006;2022-07-25T10:11:25;38.90;43.40
42867;DHT22;39461;40.948;73.006;2022-07-25T10:13:54;38.80;44.00
42867;DHT22;39461;40.948;73.006;2022-07-25T10:16:28;38.80;43.40
42867;DHT22;39461;40.948;73.006;2022-07-25T10:18:57;38.80;43.50
42867;DHT22;39461;40.948;73.006;2022-07-25T10:21:30;38.80;43.70
42867;DHT22;39461;40.948;73.006;2022-07-25T10:24:08;38.80;44.50
42867;DHT22;39461;40.948;73.006;2022-07-25T10:26:51;38.90;45.20
42867;DHT22;39461;40.948;73.006;2022-07-25T10:29:32;38.90;46.30
42867;DHT22;39461;40.948;73.006;2022-07-25T10:32:10;38.90;45.60
42867;DHT22;39461;40.948;73.006;2022-07-25T10:34:53;38.80;46.60
42867;DHT22;39461;40.948;73.006;2022-07-25T10:37:29;38.70;46.20
42867;DHT22;39461;40.948;73.006;2022-07-25T10:40:06;38.80;46.00
42867;DHT22;39461;40.948;73.006;2022-07-25T10:42:43;38.80;45.60
42867;DHT22;39461;40.948;73.006;2022-07-25T10:45:19;38.60;44.80
42867;DHT22;39461;40.948;73.006;2022-07-25T10:48:19;38.60;44.90
42867;DHT22;39461;40.948;73.006;2022-07-25T10:51:01;38.50;44.70
42867;DHT22;39461;40.948;73.006;2022-07-25T10:56:21;38.50;43.10
42867;DHT22;39461;40.948;73.006;2022-07-25T10:59:00;38.50;43.00
42867;DHT22;39461;40.948;73.006;2022-07-25T11:01:35;38.50;43.30
42867;DHT22;39461;40.948;73.006;2022-07-25T11:04:13;38.60;43.20
42867;DHT22;39461;40.948;73.006;2022-07-25T11:06:43;38.50;42.90
42867;DHT22;39461;40.948;73.006;2022-07-25T11:09:23;38.50;43.50
42867;DHT22;39461;40.948;73.006;2022-07-25T11:11:59;38.40;44.00
42867;DHT22;39461;40.948;73.006;2022-07-25T11:17:21;38.30;44.70
42867;DHT22;39461;40.948;73.006;2022-07-25T11:20:05;38.40;43.90
42867;DHT22;39461;40.948;73.006;2022-07-25T11:22:40;38.40;43.50
42867;DHT22;39461;40.948;73.006;2022-07-25T11:25:14;38.40;43.60
42867;DHT22;39461;40.948;73.006;2022-07-25T11:27:55;38.40;44.00
42867;DHT22;39461;40.948;73.006;2022-07-25T11:30:31;38.30;44.90
42867;DHT22;39461;40.948;73.006;2022-07-25T11:32:59;38.20;45.00
42867;DHT22;39461;40.948;73.006;2022-07-25T11:35:36;38.20;45.10
42867;DHT22;39461;40.948;73.006;2022-07-25T11:38:12;38.20;45.30
42867;DHT22;39461;40.948;73.006;2022-07-25T11:40:49;38.10;45.20
42867;DHT22;39461;40.948;73.006;2022-07-25T11:43:24;38.10;45.80
42867;DHT22;39461;40.948;73.006;2022-07-25T11:46:06;38.00;45.60
42867;DHT22;39461;40.948;73.006;2022-07-25T11:48:38;38.00;45.60
42867;DHT22;39461;40.948;73.006;2022-07-25T11:51:10;38.00;46.60
42867;DHT22;39461;40.948;73.006;2022-07-25T11:53:43;37.80;47.50
42867;DHT22;39461;40.948;73.006;2022-07-25T11:56:22;37.80;47.70
42867;DHT22;39461;40.948;73.006;2022-07-25T11:59:20;37.70;47.90
42867;DHT22;39461;40.948;73.006;2022-07-25T12:01:56;37.60;48.60
42867;DHT22;39461;40.948;73.006;2022-07-25T12:04:33;37.50;48.90
42867;DHT22;39461;40.948;73.006;2022-07-25T12:07:06;37.40;49.30
42867;DHT22;39461;40.948;73.006;2022-07-25T12:09:39;37.40;49.60
42867;DHT22;39461;40.948;73.006;2022-07-25T12:12:13;37.30;50.70
42867;DHT22;39461;40.948;73.006;2022-07-25T12:14:48;37.30;50.80
42867;DHT22;39461;40.948;73.006;2022-07-25T12:17:23;37.30;50.90
42867;DHT22;39461;40.948;73.006;2022-07-25T12:19:58;37.30;51.80
42867;DHT22;39461;40.948;73.006;2022-07-25T12:22:57;37.20;51.70
42867;DHT22;39461;40.948;73.006;2022-07-25T12:25:35;37.10;51.40
42867;DHT22;39461;40.948;73.006;2022-07-25T12:28:10;37.10;52.00
42867;DHT22;39461;40.948;73.006;2022-07-25T12:30:46;37.00;52.40
42867;DHT22;39461;40.948;73.006;2022-07-25T12:33:22;37.00;52.70
42867;DHT22;39461;40.948;73.006;2022-07-25T12:36:02;36.90;51.90
42867;DHT22;39461;40.948;73.006;2022-07-25T12:38:36;36.80;51.60
42867;DHT22;39461;40.948;73.006;2022-07-25T12:41:02;36.80;51.40
42867;DHT22;39461;40.948;73.006;2022-07-25T12:43:35;36.70;51.20
42867;DHT22;39461;40.948;73.006;2022-07-25T12:46:09;36.70;51.40
42867;DHT22;39461;40.948;73.006;2022-07-25T12:48:42;36.60;52.00
42867;DHT22;39461;40.948;73.006;2022-07-25T12:51:17;36.50;52.10
42867;DHT22;39461;40.948;73.006;2022-07-25T12:53:52;36.50;52.30
42867;DHT22;39461;40.948;73.006;2022-07-25T12:56:27;36.50;52.40
42867;DHT22;39461;40.948;73.006;2022-07-25T12:58:53;36.40;53.30
42867;DHT22;39461;40.948;73.006;2022-07-25T13:01:24;36.40;53.30
42867;DHT22;39461;40.948;73.006;2022-07-25T13:03:57;36.40;53.60
42867;DHT22;39461;40.948;73.006;2022-07-25T13:06:30;36.30;54.20
42867;DHT22;39461;40.948;73.006;2022-07-25T13:09:04;36.30;54.40
42867;DHT22;39461;40.948;73.006;2022-07-25T13:11:37;36.20;54.40
42867;DHT22;39461;40.948;73.006;2022-07-25T13:14:06;36.20;54.00
42867;DHT22;39461;40.948;73.006;2022-07-25T13:16:38;36.10;53.10
42867;DHT22;39461;40.948;73.006;2022-07-25T13:19:12;36.00;53.30
42867;DHT22;39461;40.948;73.006;2022-07-25T13:21:41;35.90;53.40
42867;DHT22;39461;40.948;73.006;2022-07-25T13:24:17;35.80;53.40
42867;DHT22;39461;40.948;73.006;2022-07-25T13:26:52;35.80;53.80
42867;DHT22;39461;40.948;73.006;2022-07-25T13:29:27;35.70;54.10
42867;DHT22;39461;40.948;73.006;2022-07-25T13:32:00;35.60;54.20
42867;DHT22;39461;40.948;73.006;2022-07-25T13:34:35;35.60;54.60
42867;DHT22;39461;40.948;73.006;2022-07-25T13:37:08;35.50;54.70
42867;DHT22;39461;40.948;73.006;2022-07-25T13:39:47;35.40;54.80
42867;DHT22;39461;40.948;73.006;2022-07-25T13:42:21;35.40;55.10
42867;DHT22;39461;40.948;73.006;2022-07-25T13:44:54;35.40;54.50
42867;DHT22;39461;40.948;73.006;2022-07-25T13:47:32;35.40;54.50
42867;DHT22;39461;40.948;73.006;2022-07-25T13:50:01;35.30;54.50
42867;DHT22;39461;40.948;73.006;2022-07-25T13:52:34;35.20;54.70
42867;DHT22;39461;40.948;73.006;2022-07-25T13:55:13;35.20;54.70
42867;DHT22;39461;40.948;73.006;2022-07-25T13:57:48;35.20;54.90
42867;DHT22;39461;40.948;73.006;2022-07-25T14:00:23;35.10;55.30
42867;DHT22;39461;40.948;73.006;2022-07-25T14:02:58;35.10;56.70
42867;DHT22;39461;40.948;73.006;2022-07-25T14:05:33;35.00;56.30
42867;DHT22;39461;40.948;73.006;2022-07-25T14:08:08;34.90;56.80
42867;DHT22;39461;40.948;73.006;2022-07-25T14:10:47;34.80;57.20
42867;DHT22;39461;40.948;73.006;2022-07-25T14:13:22;34.80;57.50
42867;DHT22;39461;40.948;73.006;2022-07-25T14:15:55;34.70;58.60
42867;DHT22;39461;40.948;73.006;2022-07-25T14:18:29;34.70;59.90
42867;DHT22;39461;40.948;73.006;2022-07-25T14:20:59;34.50;60.10
42867;DHT22;39461;40.948;73.006;2022-07-25T14:23:32;34.30;60.10
42867;DHT22;39461;40.948;73.006;2022-07-25T14:26:05;34.30;61.40
42867;DHT22;39461;40.948;73.006;2022-07-25T14:28:42;34.20;60.40
42867;DHT22;39461;40.948;73.006;2022-07-25T14:31:15;34.20;58.70
42867;DHT22;39461;40.948;73.006;2022-07-25T14:33:55;34.10;58.40
42867;DHT22;39461;40.948;73.006;2022-07-25T14:36:28;34.10;57.90
42867;DHT22;39461;40.948;73.006;2022-07-25T14:39:02;34.00;60.10
42867;DHT22;39461;40.948;73.006;2022-07-25T14:41:36;33.90;60.90
42867;DHT22;39461;40.948;73.006;2022-07-25T14:44:10;33.80;60.50
42867;DHT22;39461;40.948;73.006;2022-07-25T14:46:37;33.70;60.60
42867;DHT22;39461;40.948;73.006;2022-07-25T14:49:13;33.50;64.60
42867;DHT22;39461;40.948;73.006;2022-07-25T14:51:47;33.40;65.80
42867;DHT22;39461;40.948;73.006;2022-07-25T14:54:21;33.30;68.10
42867;DHT22;39461;40.948;73.006;2022-07-25T14:56:55;33.20;65.50
42867;DHT22;39461;40.948;73.006;2022-07-25T14:59:28;33.10;63.80
42867;DHT22;39461;40.948;73.006;2022-07-25T15:02:01;33.00;68.90
42867;DHT22;39461;40.948;73.006;2022-07-25T15:04:37;32.80;67.90
42867;DHT22;39461;40.948;73.006;2022-07-25T15:07:12;32.70;68.00
42867;DHT22;39461;40.948;73.006;2022-07-25T15:09:46;32.70;69.80
42867;DHT22;39461;40.948;73.006;2022-07-25T15:12:20;32.60;68.60
42867;DHT22;39461;40.948;73.006;2022-07-25T15:14:57;32.60;69.20
42867;DHT22;39461;40.948;73.006;2022-07-25T15:17:34;32.60;68.60
42867;DHT22;39461;40.948;73.006;2022-07-25T15:20:09;32.50;69.00
42867;DHT22;39461;40.948;73.006;2022-07-25T15:22:44;32.40;69.80
42867;DHT22;39461;40.948;73.006;2022-07-25T15:25:17;32.40;72.90
42867;DHT22;39461;40.948;73.006;2022-07-25T15:27:51;32.30;71.10
42867;DHT22;39461;40.948;73.006;2022-07-25T15:30:24;32.20;72.50
42867;DHT22;39461;40.948;73.006;2022-07-25T15:32:57;32.10;70.60
42867;DHT22;39461;40.948;73.006;2022-07-25T15:35:28;32.00;71.60
42867;DHT22;39461;40.948;73.006;2022-07-25T15:38:01;32.00;71.50
42867;DHT22;39461;40.948;73.006;2022-07-25T15:40:36;32.00;70.30
42867;DHT22;39461;40.948;73.006;2022-07-25T15:43:10;31.80;72.60
42867;DHT22;39461;40.948;73.006;2022-07-25T15:45:45;31.80;72.60
42867;DHT22;39461;40.948;73.006;2022-07-25T15:48:15;31.70;70.70
42867;DHT22;39461;40.948;73.006;2022-07-25T15:50:47;31.60;71.90
42867;DHT22;39461;40.948;73.006;2022-07-25T15:53:24;31.50;69.00
42867;DHT22;39461;40.948;73.006;2022-07-25T15:56:00;31.50;67.40
42867;DHT22;39461;40.948;73.006;2022-07-25T15:58:29;31.50;66.60
42867;DHT22;39461;40.948;73.006;2022-07-25T16:01:03;31.40;67.00
42867;DHT22;39461;40.948;73.006;2022-07-25T16:03:42;31.30;67.20
42867;DHT22;39461;40.948;73.006;2022-07-25T16:06:15;31.30;67.50
42867;DHT22;39461;40.948;73.006;2022-07-25T16:08:52;31.20;66.20
42867;DHT22;39461;40.948;73.006;2022-07-25T16:11:27;31.20;66.10